Agate, Nebraska
Current Conditions -  °F | °C
As of 8:53 AM on Sunday 21 Dec 2014 (Local Time) from KBFF Reporting Station
Few Clouds Few Clouds  
Wind Chill: -4°   Ceiling: Unl
Heat Index:   Visibility: 10mi
Dew Point: -6°   Wind: 8mph
Humidity: 66%   Direction: 190°S
Pressure: 29.61"   Gusts: NA
Location:  42.42°N, 103.79°W
Report Text: KBFF 211553Z AUTO 19007KT 10SM FEW060 00/M06 A2961 RMK AO2 SLP047 T00001056
Loading
Personal Weather Stations






























Interactive Weather Map New forecast layout! Learn more

10-Day Weather Forecast

Advertisements
Track Severe Weather on mobile